Time;durP1;ratioP1;P1;durP2;ratioP2;P2;SDS_P1;SDS_P2;PMS_P1;PMS_P2;Temp;Humidity;BMP_temperature;BMP_pressure;BME280_temperature;BME280_humidity;BME280_pressure;Samples;Min_cycle;Max_cycle;Signal;HPM_P1;HPM_P2
2021/05/25 00:00:23;;;;;;;2.40;1.30;;;17.50;99.90;;;;;;5093017;28;20565;-75
2021/05/25 00:02:49;;;;;;;1.20;1.10;;;17.40;99.90;;;;;;5093218;28;20990;-75
2021/05/25 00:05:17;;;;;;;1.33;1.23;;;17.40;99.90;;;;;;5093209;28;20486;-75
2021/05/25 00:07:43;;;;;;;1.50;1.40;;;17.30;99.90;;;;;;5093348;28;20446;-75
2021/05/25 00:10:11;;;;;;;1.10;1.00;;;17.20;99.90;;;;;;5093193;28;20446;-75
2021/05/25 00:12:38;;;;;;;3.63;1.20;;;17.20;99.90;;;;;;5093208;28;20493;-75
2021/05/25 00:15:06;;;;;;;1.63;1.53;;;17.10;99.90;;;;;;5092928;28;20482;-75
2021/05/25 00:17:32;;;;;;;1.40;1.30;;;17.10;99.90;;;;;;5093295;28;20497;-75
2021/05/25 00:19:58;;;;;;;1.20;1.10;;;17.00;99.90;;;;;;5092473;28;20908;-75
2021/05/25 00:22:24;;;;;;;1.53;1.20;;;17.00;99.90;;;;;;5093133;28;20500;-75
2021/05/25 00:24:50;;;;;;;1.23;1.13;;;16.90;99.90;;;;;;5093106;28;20486;-74
2021/05/25 00:27:17;;;;;;;1.30;1.20;;;16.90;99.90;;;;;;5092912;28;20553;-74
2021/05/25 00:29:43;;;;;;;1.10;1.00;;;16.90;99.90;;;;;;5092860;28;20541;-75
2021/05/25 00:32:09;;;;;;;3.60;1.10;;;16.90;99.90;;;;;;5093124;28;20454;-75
2021/05/25 00:34:35;;;;;;;1.50;1.17;;;16.90;99.90;;;;;;5092824;28;20496;-75
2021/05/25 00:37:01;;;;;;;1.77;1.00;;;16.90;99.90;;;;;;5093039;28;20490;-75
2021/05/25 00:39:27;;;;;;;1.80;1.33;;;16.90;99.90;;;;;;5092738;28;20960;-75
2021/05/25 00:41:54;;;;;;;1.30;1.00;;;16.90;99.90;;;;;;5092910;28;20454;-74
2021/05/25 00:44:21;;;;;;;2.83;1.10;;;16.90;99.90;;;;;;5092774;28;20472;-75
2021/05/25 00:46:47;;;;;;;2.20;1.03;;;16.80;99.90;;;;;;5092613;28;21089;-75
2021/05/25 00:49:13;;;;;;;2.40;1.10;;;16.80;99.90;;;;;;5092718;28;20516;-75
2021/05/25 00:51:39;;;;;;;2.67;1.10;;;16.70;99.90;;;;;;5093113;28;20867;-75
2021/05/25 00:54:06;;;;;;;1.50;0.90;;;16.60;99.90;;;;;;5092856;28;20446;-75
2021/05/25 00:56:32;;;;;;;1.23;1.03;;;16.60;99.90;;;;;;5092668;28;20934;-75
2021/05/25 00:58:59;;;;;;;2.90;1.30;;;16.50;99.90;;;;;;5092469;28;20474;-75
2021/05/25 01:01:25;;;;;;;1.50;1.40;;;16.50;99.90;;;;;;5092872;28;20545;-75
2021/05/25 01:03:52;;;;;;;1.37;1.03;;;16.50;99.90;;;;;;5092732;28;20972;-75
2021/05/25 01:06:18;;;;;;;1.27;1.00;;;16.40;99.90;;;;;;5092618;28;20505;-75
2021/05/25 01:08:44;;;;;;;1.10;0.90;;;16.30;99.90;;;;;;5092660;28;20486;-75
2021/05/25 01:11:11;;;;;;;1.10;0.80;;;16.30;99.90;;;;;;5092735;28;20497;-76
2021/05/25 01:13:44;;;;;;;2.30;1.00;;;16.20;99.90;;;;;;5092667;28;20538;-75
2021/05/25 01:16:11;;;;;;;3.03;1.40;;;16.20;99.90;;;;;;5092675;28;20489;-75
2021/05/25 01:18:37;;;;;;;1.60;1.13;;;16.20;99.90;;;;;;5092751;28;20474;-74
2021/05/25 01:21:06;;;;;;;1.23;1.13;;;16.20;99.90;;;;;;5092620;28;20450;-75
2021/05/25 01:23:34;;;;;;;1.77;1.07;;;16.10;99.90;;;;;;5092631;28;20483;-74
2021/05/25 01:26:01;;;;;;;1.10;0.90;;;16.00;99.90;;;;;;5092336;28;20466;-74
2021/05/25 01:28:27;;;;;;;1.43;0.93;;;16.00;99.90;;;;;;5092773;28;20843;-75
2021/05/25 01:30:55;;;;;;;1.27;1.00;;;15.90;99.90;;;;;;5093557;28;20466;-75
2021/05/25 01:33:25;;;;;;;1.20;1.10;;;15.90;99.90;;;;;;5096160;28;20454;-75
2021/05/25 01:35:52;;;;;;;2.73;1.30;;;15.80;99.90;;;;;;5096138;28;20516;-75
2021/05/25 01:38:19;;;;;;;2.30;1.00;;;15.70;99.90;;;;;;5095948;28;20486;-75
2021/05/25 01:40:46;;;;;;;1.17;1.00;;;15.70;99.90;;;;;;5096193;28;20478;-75
2021/05/25 01:43:14;;;;;;;1.30;1.20;;;15.70;99.90;;;;;;5096188;28;20492;-75
2021/05/25 01:45:41;;;;;;;1.53;0.90;;;15.60;99.90;;;;;;5095701;28;20509;-75
2021/05/25 01:48:09;;;;;;;1.40;1.30;;;15.60;99.90;;;;;;5095974;28;20486;-75
2021/05/25 01:50:37;;;;;;;1.60;1.30;;;15.50;99.90;;;;;;5095737;28;20492;-75
2021/05/25 01:53:06;;;;;;;2.27;1.27;;;15.50;99.90;;;;;;5095754;28;20478;-75
2021/05/25 01:55:35;;;;;;;2.00;1.37;;;15.40;99.90;;;;;;5095603;28;20831;-75
2021/05/25 01:58:05;;;;;;;2.43;1.37;;;15.40;99.90;;;;;;5095704;28;20442;-76
2021/05/25 02:00:32;;;;;;;1.50;1.40;;;15.40;99.90;;;;;;5095614;28;20478;-75
2021/05/25 02:02:58;;;;;;;3.40;1.30;;;15.40;99.90;;;;;;5095530;28;20482;-75
2021/05/25 02:05:24;;;;;;;1.53;1.33;;;15.40;99.90;;;;;;5095247;28;20457;-75
2021/05/25 02:07:53;;;;;;;1.47;1.37;;;15.40;99.90;;;;;;5095710;28;20534;-75
2021/05/25 02:10:24;;;;;;;6.97;1.90;;;15.40;99.90;;;;;;5095432;28;20482;-75
2021/05/25 02:12:51;;;;;;;3.20;1.90;;;15.30;99.90;;;;;;5095468;28;20450;-75
2021/05/25 02:15:18;;;;;;;3.10;1.20;;;15.30;99.90;;;;;;5095240;28;20470;-75
2021/05/25 02:17:44;;;;;;;2.50;1.20;;;15.30;99.90;;;;;;5095342;28;20482;-74
2021/05/25 02:20:11;;;;;;;2.07;1.30;;;15.20;99.90;;;;;;5095064;28;20542;-75
2021/05/25 02:22:37;;;;;;;1.77;1.63;;;15.20;99.90;;;;;;5095146;28;20508;-75
2021/05/25 02:25:05;;;;;;;1.43;1.33;;;15.10;99.90;;;;;;5095166;28;20478;-74
2021/05/25 02:27:31;;;;;;;2.00;1.43;;;15.10;99.90;;;;;;5094959;28;20482;-74
2021/05/25 02:29:57;;;;;;;2.50;1.30;;;15.10;99.90;;;;;;5094974;28;20883;-75
2021/05/25 02:32:24;;;;;;;2.40;1.40;;;15.00;99.90;;;;;;5095017;28;20486;-75
2021/05/25 02:34:50;;;;;;;1.60;1.40;;;15.00;99.90;;;;;;5094863;28;20489;-74
2021/05/25 02:37:16;;;;;;;3.93;1.43;;;15.00;99.90;;;;;;5094901;28;20504;-74
2021/05/25 02:39:42;;;;;;;2.83;1.23;;;14.90;99.90;;;;;;5094878;28;20961;-74
2021/05/25 02:42:08;;;;;;;2.73;1.40;;;14.90;99.90;;;;;;5094266;28;20967;-74
2021/05/25 02:44:35;;;;;;;3.10;1.63;;;14.90;99.90;;;;;;5094520;28;20533;-74
2021/05/25 02:47:01;;;;;;;3.40;1.47;;;15.00;99.90;;;;;;5094499;28;20509;-75
2021/05/25 02:49:27;;;;;;;2.90;1.73;;;15.00;99.90;;;;;;5094840;28;20549;-74
2021/05/25 02:51:53;;;;;;;1.60;1.50;;;15.00;99.90;;;;;;5094687;28;20486;-75
2021/05/25 02:54:19;;;;;;;1.53;1.40;;;15.00;99.90;;;;;;5094730;28;20527;-74
2021/05/25 02:56:45;;;;;;;2.80;1.60;;;15.10;99.90;;;;;;5094470;28;20878;-74
2021/05/25 02:59:11;;;;;;;1.80;1.70;;;15.00;99.90;;;;;;5094345;28;20565;-74
2021/05/25 03:01:37;;;;;;;1.97;1.47;;;15.10;99.90;;;;;;5094259;28;20478;-74
2021/05/25 03:04:04;;;;;;;1.80;1.70;;;15.10;99.90;;;;;;5094642;28;20470;-74
2021/05/25 03:06:30;;;;;;;1.50;1.40;;;15.10;99.90;;;;;;5094312;28;20517;-75
2021/05/25 03:08:56;;;;;;;1.83;1.47;;;15.10;99.90;;;;;;5094416;28;20447;-75
2021/05/25 03:11:23;;;;;;;1.63;1.53;;;15.10;99.90;;;;;;5094281;28;20838;-75
2021/05/25 03:13:51;;;;;;;1.60;1.50;;;15.10;99.90;;;;;;5094166;28;20476;-75
2021/05/25 03:16:17;;;;;;;3.03;1.77;;;15.10;99.90;;;;;;5093910;28;20916;-75
2021/05/25 03:18:43;;;;;;;2.47;1.60;;;15.00;99.90;;;;;;5094261;28;20541;-75
2021/05/25 03:21:09;;;;;;;2.33;1.60;;;15.10;99.90;;;;;;5094072;28;20569;-75
2021/05/25 03:23:36;;;;;;;4.10;1.93;;;15.10;99.90;;;;;;5094153;28;20545;-75
2021/05/25 03:26:03;;;;;;;3.10;1.83;;;15.00;99.90;;;;;;5093785;28;20557;-75
2021/05/25 03:28:29;;;;;;;2.97;2.17;;;15.00;99.90;;;;;;5092761;28;20466;-75
2021/05/25 03:30:55;;;;;;;3.70;1.60;;;15.00;99.90;;;;;;5093785;28;20478;-75
2021/05/25 03:33:21;;;;;;;3.73;2.00;;;14.90;99.90;;;;;;5093918;28;20600;-76
2021/05/25 03:35:49;;;;;;;2.57;1.70;;;15.00;99.90;;;;;;5093656;28;20957;-75
2021/05/25 03:38:15;;;;;;;2.43;2.00;;;15.00;99.90;;;;;;5093732;28;20805;-74
2021/05/25 03:40:41;;;;;;;1.60;1.50;;;15.00;99.90;;;;;;5093844;28;20446;-74
2021/05/25 03:43:08;;;;;;;2.23;1.90;;;14.90;99.90;;;;;;5093578;28;20937;-74
2021/05/25 03:45:34;;;;;;;2.50;1.50;;;14.90;99.90;;;;;;5093422;28;20466;-75
2021/05/25 03:48:00;;;;;;;4.20;2.00;;;15.00;99.90;;;;;;5093740;28;20541;-75
2021/05/25 03:50:26;;;;;;;3.37;1.57;;;15.00;99.90;;;;;;5093653;28;20500;-74
2021/05/25 03:52:54;;;;;;;1.50;1.30;;;15.00;99.90;;;;;;5093584;28;20451;-75
2021/05/25 03:55:31;;;;;;;3.40;2.20;;;15.00;99.90;;;;;;5092588;28;20457;-75
2021/05/25 04:00:43;;;;;;;1.70;1.60;;;15.10;99.90;;;;;;5093408;28;20450;-74
2021/05/25 04:03:09;;;;;;;1.83;1.70;;;15.10;99.90;;;;;;5093296;28;20531;-75
2021/05/25 04:05:35;;;;;;;2.23;1.70;;;15.10;99.90;;;;;;5093313;28;20541;-75
2021/05/25 04:08:01;;;;;;;4.27;1.63;;;15.10;99.90;;;;;;5093249;28;20948;-74
2021/05/25 04:10:28;;;;;;;1.97;1.80;;;15.10;99.90;;;;;;5093286;28;20485;-75
2021/05/25 04:12:54;;;;;;;2.60;1.60;;;15.20;99.90;;;;;;5093323;28;20477;-75
2021/05/25 04:15:23;;;;;;;1.60;1.50;;;15.20;99.90;;;;;;5093416;28;20545;-75
2021/05/25 04:17:52;;;;;;;1.73;1.60;;;15.30;99.90;;;;;;5093010;28;20446;-75
2021/05/25 04:20:18;;;;;;;1.80;1.70;;;15.40;99.90;;;;;;5093193;28;20462;-75
2021/05/25 04:22:44;;;;;;;1.80;1.47;;;15.50;99.90;;;;;;5093084;28;20450;-75
2021/05/25 04:25:11;;;;;;;2.10;1.80;;;15.60;99.90;;;;;;5092859;28;20538;-74
2021/05/25 04:27:37;;;;;;;2.03;1.60;;;15.60;99.90;;;;;;5093021;28;20514;-75
2021/05/25 04:30:05;;;;;;;2.90;2.30;;;15.60;99.90;;;;;;5093013;28;20450;-75
2021/05/25 04:32:31;;;;;;;2.07;1.80;;;15.50;99.90;;;;;;5093128;28;20457;-74
2021/05/25 04:34:57;;;;;;;2.13;1.53;;;15.40;99.90;;;;;;5092882;28;20454;-75
2021/05/25 04:37:24;;;;;;;4.43;1.80;;;15.40;99.90;;;;;;5092876;28;20484;-75
2021/05/25 04:39:50;;;;;;;2.00;1.80;;;15.30;99.90;;;;;;5092781;28;20546;-75
2021/05/25 04:42:16;;;;;;;3.23;1.87;;;15.30;99.90;;;;;;5092790;28;20489;-75
2021/05/25 04:44:43;;;;;;;5.70;1.90;;;15.20;99.90;;;;;;5092939;28;20454;-75
2021/05/25 04:47:09;;;;;;;2.03;1.60;;;15.20;99.90;;;;;;5092722;28;20517;-75
2021/05/25 04:49:39;;;;;;;4.13;2.00;;;15.20;99.90;;;;;;5092748;28;20493;-74
2021/05/25 04:52:05;;;;;;;2.23;1.50;;;15.30;99.90;;;;;;5092718;28;20998;-75
2021/05/25 04:54:31;;;;;;;2.00;1.80;;;15.30;99.90;;;;;;5092540;28;20483;-75
2021/05/25 04:56:57;;;;;;;1.63;1.53;;;15.40;99.90;;;;;;5092939;28;20487;-75
2021/05/25 04:59:23;;;;;;;2.60;1.70;;;15.50;99.90;;;;;;5092588;28;20554;-75
2021/05/25 05:01:50;;;;;;;3.93;2.27;;;15.60;99.90;;;;;;5092754;28;20478;-75
2021/05/25 05:04:16;;;;;;;2.03;1.83;;;15.70;99.90;;;;;;5092648;28;20447;-75
2021/05/25 05:06:42;;;;;;;1.80;1.40;;;15.90;99.90;;;;;;5094720;28;20567;-75
2021/05/25 05:09:08;;;;;;;1.70;1.57;;;15.90;99.90;;;;;;5096800;28;21006;-75
2021/05/25 05:11:35;;;;;;;2.70;1.20;;;16.00;99.90;;;;;;5096752;28;20450;-74
2021/05/25 05:14:01;;;;;;;2.17;1.57;;;16.20;99.90;;;;;;5096452;28;21000;-75
2021/05/25 05:16:27;;;;;;;4.20;1.87;;;16.30;99.90;;;;;;5096478;28;20856;-75
2021/05/25 05:18:53;;;;;;;4.03;1.97;;;16.40;99.90;;;;;;5096458;28;20451;-75
2021/05/25 05:21:19;;;;;;;1.40;1.30;;;16.40;99.90;;;;;;5096307;28;20866;-75
2021/05/25 05:23:46;;;;;;;1.67;1.57;;;16.40;99.90;;;;;;5096423;28;20470;-76
2021/05/25 05:26:12;;;;;;;6.70;1.40;;;16.30;99.90;;;;;;5096338;28;20795;-74
2021/05/25 05:28:39;;;;;;;2.57;2.00;;;16.20;99.90;;;;;;5096284;28;20883;-75
2021/05/25 05:31:05;;;;;;;3.53;1.60;;;16.10;99.90;;;;;;5096238;28;20541;-75
2021/05/25 05:33:31;;;;;;;1.83;1.73;;;16.00;99.90;;;;;;5096238;28;20503;-75
2021/05/25 05:35:57;;;;;;;1.87;1.77;;;15.90;99.90;;;;;;5095946;28;20450;-75
2021/05/25 05:38:24;;;;;;;2.40;1.77;;;15.90;99.90;;;;;;5096276;28;20473;-75
2021/05/25 05:40:51;;;;;;;2.00;1.80;;;15.80;99.90;;;;;;5096065;28;20549;-75
2021/05/25 05:43:18;;;;;;;4.70;1.93;;;15.70;99.90;;;;;;5096064;28;20450;-75
2021/05/25 05:45:44;;;;;;;3.13;1.77;;;15.70;99.90;;;;;;5095817;28;20446;-75
2021/05/25 05:48:10;;;;;;;1.90;1.80;;;15.70;99.90;;;;;;5095798;28;20482;-75
2021/05/25 05:50:37;;;;;;;1.73;1.63;;;15.60;99.90;;;;;;5095719;28;20533;-75
2021/05/25 05:53:03;;;;;;;1.63;1.53;;;15.60;99.90;;;;;;5096070;28;20470;-75
2021/05/25 05:55:29;;;;;;;3.80;1.57;;;15.70;99.90;;;;;;5095880;28;20481;-74
2021/05/25 05:57:57;;;;;;;1.90;1.80;;;15.70;99.90;;;;;;5095757;28;20454;-75
2021/05/25 06:00:23;;;;;;;2.47;1.90;;;15.70;99.90;;;;;;5095352;28;20482;-75
2021/05/25 06:02:50;;;;;;;2.63;2.23;;;15.60;99.90;;;;;;5095617;28;20486;-76
2021/05/25 06:05:16;;;;;;;1.73;1.63;;;15.60;99.90;;;;;;5095856;28;20541;-75
2021/05/25 06:07:42;;;;;;;3.10;1.67;;;15.60;99.90;;;;;;5095676;28;20569;-75
2021/05/25 06:10:09;;;;;;;3.70;1.60;;;15.50;99.90;;;;;;5095587;28;20481;-75
2021/05/25 06:12:35;;;;;;;3.30;1.73;;;15.50;99.90;;;;;;5095492;28;20973;-75
2021/05/25 06:15:02;;;;;;;2.00;1.20;;;15.50;99.90;;;;;;5095397;28;20478;-75
2021/05/25 06:17:28;;;;;;;1.67;1.30;;;15.40;99.90;;;;;;5094134;28;20547;-76
2021/05/25 06:19:55;;;;;;;1.30;1.20;;;15.40;99.90;;;;;;5095406;28;20454;-75
2021/05/25 06:22:22;;;;;;;2.50;1.80;;;15.40;99.90;;;;;;5095403;28;20474;-75
2021/05/25 06:24:48;;;;;;;4.83;1.63;;;15.50;99.90;;;;;;5095167;28;20451;-75
2021/05/25 06:27:16;;;;;;;2.73;1.70;;;15.50;99.90;;;;;;5095065;28;21060;-75
2021/05/25 06:29:42;;;;;;;1.73;1.33;;;15.50;99.90;;;;;;5094995;28;20455;-75
2021/05/25 06:32:09;;;;;;;3.03;1.37;;;15.60;99.90;;;;;;5094897;28;20530;-75
2021/05/25 06:34:35;;;;;;;1.20;1.10;;;15.70;99.90;;;;;;5095071;28;20538;-75
2021/05/25 06:37:01;;;;;;;1.63;1.27;;;15.80;99.90;;;;;;5095108;28;20494;-75
2021/05/25 06:39:27;;;;;;;1.20;1.00;;;15.90;99.90;;;;;;5095157;28;20446;-75
2021/05/25 06:41:53;;;;;;;2.73;0.93;;;15.90;99.90;;;;;;5094939;28;20881;-75
2021/05/25 06:44:19;;;;;;;1.73;0.90;;;15.90;99.90;;;;;;5094786;28;20486;-74
2021/05/25 06:46:45;;;;;;;2.63;1.30;;;15.90;99.90;;;;;;5094473;28;20482;-75
2021/05/25 06:49:12;;;;;;;3.30;3.10;;;15.90;99.90;;;;;;5094867;28;20458;-75
2021/05/25 06:51:38;;;;;;;7.97;6.40;;;15.90;99.90;;;;;;5094757;28;20534;-75
2021/05/25 06:54:07;;;;;;;1.40;1.30;;;16.00;99.90;;;;;;5094750;28;20474;-75
2021/05/25 06:56:33;;;;;;;2.50;1.00;;;16.00;99.90;;;;;;5094344;28;20973;-75
2021/05/25 06:58:59;;;;;;;2.60;0.80;;;16.00;99.90;;;;;;5094366;28;20574;-75
2021/05/25 07:01:25;;;;;;;1.20;0.90;;;16.00;99.90;;;;;;5094384;28;20462;-75
2021/05/25 07:03:53;;;;;;;1.13;0.70;;;16.00;99.90;;;;;;5093399;28;20501;-74
2021/05/25 07:06:20;;;;;;;1.60;0.90;;;16.10;99.90;;;;;;5094391;28;20470;-75
2021/05/25 07:08:46;;;;;;;1.10;0.80;;;16.20;99.90;;;;;;5094395;28;20516;-75
2021/05/25 07:11:12;;;;;;;1.73;0.77;;;16.30;99.90;;;;;;5094606;28;20814;-75
2021/05/25 07:13:38;;;;;;;3.70;1.20;;;16.50;99.90;;;;;;5094258;28;20497;-75
2021/05/25 07:16:05;;;;;;;1.67;1.20;;;16.70;99.90;;;;;;5093976;28;20543;-75
2021/05/25 07:18:37;;;;;;;1.07;0.80;;;16.80;99.90;;;;;;5092443;28;20485;-76
2021/05/25 07:21:03;;;;;;;3.47;0.83;;;16.90;99.90;;;;;;5094147;28;20478;-75
2021/05/25 07:23:30;;;;;;;1.13;0.93;;;16.90;99.90;;;;;;5093462;28;20511;-75
2021/05/25 07:25:56;;;;;;;0.93;0.80;;;16.90;99.90;;;;;;5093635;28;20979;-75
2021/05/25 07:28:22;;;;;;;1.97;1.03;;;17.00;99.90;;;;;;5093423;28;20496;-75
2021/05/25 07:30:48;;;;;;;1.33;1.23;;;17.10;99.90;;;;;;5093655;28;20486;-75
2021/05/25 07:33:15;;;;;;;1.37;0.90;;;17.30;99.90;;;;;;5093840;28;20493;-75
2021/05/25 07:35:41;;;;;;;2.30;0.80;;;17.40;99.90;;;;;;5093607;28;20512;-75
2021/05/25 07:38:08;;;;;;;1.30;0.97;;;17.40;99.90;;;;;;5093516;28;20478;-75
2021/05/25 07:40:35;;;;;;;1.83;0.80;;;17.30;99.90;;;;;;5092180;28;20953;-75
2021/05/25 07:43:01;;;;;;;4.00;1.10;;;17.30;99.90;;;;;;5091409;28;20447;-75
2021/05/25 07:45:27;;;;;;;1.57;0.90;;;17.30;99.90;;;;;;5092755;28;20447;-76
2021/05/25 07:47:53;;;;;;;1.27;0.80;;;17.20;99.90;;;;;;5092470;28;20565;-75
2021/05/25 07:50:19;;;;;;;2.63;0.87;;;17.20;99.90;;;;;;5090386;28;20446;-75
2021/05/25 07:52:47;;;;;;;0.90;0.70;;;17.20;99.90;;;;;;5089896;28;20446;-75
2021/05/25 07:55:13;;;;;;;1.20;0.90;;;17.30;99.90;;;;;;5092643;28;20479;-77
2021/05/25 07:57:41;;;;;;;1.70;0.80;;;17.20;99.90;;;;;;5092609;28;20454;-84
2021/05/25 08:00:10;;;;;;;1.60;0.80;;;17.30;99.90;;;;;;5089865;28;21004;-75
2021/05/25 08:02:36;;;;;;;2.00;0.97;;;17.40;99.90;;;;;;5092693;28;20447;-76
2021/05/25 08:05:03;;;;;;;1.20;0.70;;;17.50;99.90;;;;;;5092973;28;20481;-81
2021/05/25 08:07:29;;;;;;;3.20;0.90;;;17.60;99.90;;;;;;5092694;28;20569;-77
2021/05/25 08:09:56;;;;;;;1.40;0.80;;;17.70;99.90;;;;;;5092841;28;21021;-78
2021/05/25 08:12:22;;;;;;;4.10;1.63;;;17.60;99.90;;;;;;5092883;28;20575;-78
2021/05/25 08:14:50;;;;;;;2.50;0.83;;;17.60;99.90;;;;;;5092039;28;20486;-78
2021/05/25 08:17:20;;;;;;;0.80;0.70;;;17.50;99.90;;;;;;5091354;28;20453;-77
2021/05/25 08:19:48;;;;;;;1.47;0.70;;;17.60;99.90;;;;;;5092554;28;20442;-78
2021/05/25 08:22:14;;;;;;;1.00;0.80;;;17.90;99.90;;;;;;5090183;28;20521;-77
2021/05/25 08:24:41;;;;;;;2.53;0.83;;;18.10;99.90;;;;;;5089105;28;20486;-78
2021/05/25 08:27:07;;;;;;;2.30;0.77;;;18.20;99.90;;;;;;5091901;28;20521;-79
2021/05/25 08:29:33;;;;;;;1.40;0.80;;;18.30;99.90;;;;;;5092571;28;20510;-79
2021/05/25 08:32:00;;;;;;;1.30;0.80;;;18.40;99.90;;;;;;5092446;28;20534;-79
2021/05/25 08:34:26;;;;;;;3.00;0.70;;;18.50;99.90;;;;;;5092491;28;20443;-78
2021/05/25 08:36:52;;;;;;;1.00;0.80;;;18.40;99.90;;;;;;5092217;28;20461;-77
2021/05/25 08:39:19;;;;;;;2.47;0.80;;;18.40;99.90;;;;;;5089589;28;20478;-78
2021/05/25 08:41:45;;;;;;;2.10;0.80;;;18.30;99.90;;;;;;5094706;28;20498;-78
2021/05/25 08:44:11;;;;;;;1.20;1.00;;;18.30;99.90;;;;;;5096530;28;20442;-78
2021/05/25 08:46:38;;;;;;;1.17;0.90;;;18.30;99.90;;;;;;5096484;28;20549;-78
2021/05/25 08:49:10;;;;;;;1.23;0.70;;;18.50;99.90;;;;;;5096327;28;20474;-78
2021/05/25 08:51:36;;;;;;;1.70;0.70;;;18.70;99.90;;;;;;5096084;28;20454;-77
2021/05/25 08:54:03;;;;;;;1.73;0.80;;;19.10;99.90;;;;;;5096292;28;20474;-78
2021/05/25 08:56:30;;;;;;;0.97;0.87;;;19.40;99.90;;;;;;5093979;28;21021;-78
2021/05/25 08:58:56;;;;;;;2.63;0.80;;;19.80;99.90;;;;;;5096265;28;20462;-78
2021/05/25 09:01:22;;;;;;;2.43;0.90;;;20.00;99.90;;;;;;5096197;28;20923;-77
2021/05/25 09:03:56;;;;;;;0.90;0.80;;;20.10;99.90;;;;;;5096289;28;20446;-78
2021/05/25 09:06:40;;;;;;;2.13;1.00;;;20.10;99.90;;;;;;5095767;28;22416;-78
2021/05/25 09:09:10;;;;;;;1.30;1.07;;;20.00;99.90;;;;;;5096408;28;20465;-78
2021/05/25 09:11:57;;;;;;;1.73;0.80;;;20.10;99.90;;;;;;5096225;28;20449;-78
2021/05/25 09:14:23;;;;;;;3.87;0.80;;;20.30;99.90;;;;;;5095998;28;20447;-78
2021/05/25 09:16:49;;;;;;;1.33;0.70;;;20.50;99.90;;;;;;5095635;28;20541;-78
2021/05/25 09:19:15;;;;;;;0.90;0.70;;;20.60;99.90;;;;;;5096138;28;20470;-78
2021/05/25 09:21:42;;;;;;;1.97;0.80;;;20.60;99.90;;;;;;5095923;28;20858;-78
2021/05/25 09:24:08;;;;;;;0.90;0.80;;;20.60;99.90;;;;;;5095808;28;21017;-78
2021/05/25 09:26:37;;;;;;;1.20;0.80;;;20.60;99.90;;;;;;5095460;28;20504;-78
2021/05/25 09:29:06;;;;;;;1.10;0.90;;;20.70;99.90;;;;;;5095839;28;20438;-78
2021/05/25 09:31:39;;;;;;;1.47;0.80;;;20.90;99.90;;;;;;5095876;28;20443;-78
2021/05/25 09:34:10;;;;;;;1.20;0.87;;;21.30;99.90;;;;;;5095767;28;20860;-78
2021/05/25 09:36:57;;;;;;;2.20;0.80;;;21.50;99.90;;;;;;5095576;28;20488;-78
2021/05/25 09:39:24;;;;;;;2.43;1.10;;;21.50;99.90;;;;;;5095554;28;20457;-76
2021/05/25 09:41:56;;;;;;;1.43;0.80;;;21.40;99.90;;;;;;5095269;28;20953;-76
2021/05/25 09:44:22;;;;;;;1.67;0.77;;;21.20;99.90;;;;;;5095557;28;20817;-77
2021/05/25 09:46:49;;;;;;;2.07;1.50;;;21.10;99.90;;;;;;5095326;28;20984;-78
2021/05/25 09:49:15;;;;;;;1.50;0.73;;;21.10;99.90;;;;;;5095523;28;20446;-78
2021/05/25 09:51:42;;;;;;;1.73;1.27;;;21.20;99.90;;;;;;5095335;28;21016;-78
2021/05/25 09:54:19;;;;;;;1.40;0.77;;;21.00;99.90;;;;;;5095662;28;20457;-79
2021/05/25 09:56:56;;;;;;;1.07;0.80;;;20.80;99.90;;;;;;5095737;28;20467;-77
2021/05/25 09:59:30;;;;;;;1.30;1.00;;;20.50;99.90;;;;;;5095359;28;20477;-76
2021/05/25 10:01:57;;;;;;;1.10;0.73;;;20.20;99.90;;;;;;5095347;28;20473;-77
2021/05/25 10:04:25;;;;;;;3.00;1.30;;;20.00;99.90;;;;;;5095365;28;20482;-77
2021/05/25 10:06:51;;;;;;;1.73;0.90;;;20.10;99.90;;;;;;5092419;28;20553;-77
2021/05/25 10:09:20;;;;;;;0.80;0.80;;;20.10;99.90;;;;;;5095030;28;21022;-77
2021/05/25 10:11:47;;;;;;;1.53;0.83;;;19.90;99.90;;;;;;5094281;28;20934;-77
2021/05/25 10:14:14;;;;;;;2.67;0.87;;;19.80;99.90;;;;;;5092105;28;20454;-77
2021/05/25 10:16:41;;;;;;;1.33;0.70;;;19.70;99.90;;;;;;5094468;28;20451;-77
2021/05/25 10:19:26;;;;;;;1.83;0.80;;;19.70;99.90;;;;;;5094549;28;20439;-77
2021/05/25 10:21:53;;;;;;;3.67;1.37;;;19.90;99.90;;;;;;5092058;28;20441;-77
2021/05/25 10:24:20;;;;;;;1.20;1.03;;;20.20;99.90;;;;;;5094459;28;20474;-77
2021/05/25 10:26:46;;;;;;;1.10;0.73;;;20.30;99.90;;;;;;5094397;28;20466;-77
2021/05/25 10:29:12;;;;;;;2.07;0.87;;;20.20;99.80;;;;;;5091703;28;20447;-77
2021/05/25 10:31:40;;;;;;;1.80;1.27;;;20.10;99.90;;;;;;5094359;28;20504;-77
2021/05/25 10:34:15;;;;;;;2.20;0.80;;;20.00;99.90;;;;;;5094514;28;20548;-77
2021/05/25 10:36:46;;;;;;;4.10;0.87;;;20.10;99.90;;;;;;5092852;28;20446;-77
2021/05/25 10:39:33;;;;;;;3.40;1.00;;;20.30;99.90;;;;;;5089465;28;20470;-76
2021/05/25 10:42:25;;;;;;;1.50;0.80;;;20.60;99.90;;;;;;5091935;28;20442;-77
2021/05/25 10:44:52;;;;;;;0.80;0.70;;;20.70;99.90;;;;;;5092782;28;20508;-77
2021/05/25 10:47:21;;;;;;;0.97;0.87;;;20.60;98.50;;;;;;5094309;28;20478;-77
2021/05/25 10:49:53;;;;;;;1.40;0.80;;;20.60;98.50;;;;;;5094133;28;20473;-77
2021/05/25 10:52:19;;;;;;;1.07;0.97;;;20.60;98.90;;;;;;5094618;28;20442;-77
2021/05/25 10:54:52;;;;;;;1.50;0.80;;;20.80;98.90;;;;;;5094560;28;20482;-77
2021/05/25 10:57:46;;;;;;;3.23;0.70;;;21.10;98.50;;;;;;5094422;28;20446;-77
2021/05/25 11:00:15;;;;;;;1.67;0.73;;;21.40;97.20;;;;;;5094275;28;20509;-77
2021/05/25 11:02:51;;;;;;;1.10;0.70;;;21.50;97.10;;;;;;5094276;28;20482;-77
2021/05/25 11:05:48;;;;;;;1.30;0.70;;;21.40;97.00;;;;;;5093822;28;20450;-77
2021/05/25 11:08:25;;;;;;;1.43;0.80;;;21.30;97.90;;;;;;5094204;28;20543;-77
2021/05/25 11:10:59;;;;;;;1.20;0.80;;;21.20;97.10;;;;;;5094522;28;20462;-77
2021/05/25 11:13:27;;;;;;;2.50;1.00;;;21.20;97.10;;;;;;5094069;28;20516;-77
2021/05/25 11:16:06;;;;;;;1.37;0.80;;;21.30;98.00;;;;;;5094287;28;20446;-77
2021/05/25 11:18:36;;;;;;;1.00;0.80;;;21.00;98.00;;;;;;5094099;28;20458;-77
2021/05/25 11:23:49;;;;;;;0.90;0.70;;;20.60;99.10;;;;;;5093548;28;20430;-77
2021/05/25 11:26:56;;;;;;;2.03;0.80;;;20.40;99.50;;;;;;5094046;28;20530;-77
2021/05/25 11:29:23;;;;;;;1.33;0.70;;;20.40;99.20;;;;;;5093776;28;21024;-77
2021/05/25 11:31:49;;;;;;;1.10;0.70;;;20.30;99.20;;;;;;5093948;28;20442;-77
2021/05/25 11:34:19;;;;;;;2.60;0.70;;;20.10;99.90;;;;;;5093702;28;20529;-77
2021/05/25 11:36:45;;;;;;;0.80;0.60;;;20.00;99.90;;;;;;5093713;28;20514;-77
2021/05/25 11:39:12;;;;;;;1.20;0.70;;;20.10;99.00;;;;;;5093956;28;20537;-77
2021/05/25 11:41:38;;;;;;;0.80;0.60;;;20.20;99.50;;;;;;5093647;28;20538;-77
2021/05/25 11:44:08;;;;;;;1.10;0.70;;;20.10;99.60;;;;;;5093766;28;20542;-77
2021/05/25 11:46:41;;;;;;;1.17;0.80;;;20.10;99.90;;;;;;5094009;28;20450;-77
2021/05/25 11:49:08;;;;;;;1.83;0.70;;;20.00;98.00;;;;;;5093883;28;20478;-77
2021/05/25 11:51:35;;;;;;;1.60;0.77;;;20.00;98.00;;;;;;5093673;28;20533;-77
2021/05/25 11:54:12;;;;;;;3.43;0.90;;;20.00;97.20;;;;;;5093687;28;20919;-77
2021/05/25 11:56:41;;;;;;;2.37;0.70;;;20.10;96.20;;;;;;5093611;28;20538;-77
2021/05/25 11:59:13;;;;;;;2.50;0.50;;;20.30;94.90;;;;;;5093078;28;20566;-77
2021/05/25 12:01:44;;;;;;;2.10;0.80;;;20.60;95.20;;;;;;5091466;28;20450;-78
2021/05/25 12:04:11;;;;;;;1.53;0.67;;;20.90;94.80;;;;;;5090485;28;20470;-78
2021/05/25 12:06:53;;;;;;;1.00;0.60;;;21.10;94.10;;;;;;5093240;28;20450;-78
2021/05/25 12:09:20;;;;;;;1.20;0.70;;;21.30;93.50;;;;;;5093206;28;20500;-77
2021/05/25 12:11:47;;;;;;;0.90;0.70;;;21.50;93.80;;;;;;5093038;28;20949;-77
2021/05/25 12:14:16;;;;;;;0.87;0.57;;;21.60;93.30;;;;;;5093268;28;20453;-77
2021/05/25 12:16:43;;;;;;;0.93;0.70;;;21.70;93.80;;;;;;5088887;28;20454;-77
2021/05/25 12:19:09;;;;;;;2.13;1.50;;;21.50;93.60;;;;;;5090554;28;20941;-77
2021/05/25 12:21:37;;;;;;;1.43;0.80;;;21.20;93.00;;;;;;5092649;28;20454;-77
2021/05/25 12:24:04;;;;;;;1.00;0.60;;;21.00;93.40;;;;;;5092493;28;20469;-77
2021/05/25 12:26:30;;;;;;;2.13;0.80;;;20.70;93.70;;;;;;5092351;28;20538;-77
2021/05/25 12:28:56;;;;;;;1.87;0.90;;;20.50;93.80;;;;;;5092605;28;20450;-77
2021/05/25 12:31:29;;;;;;;1.03;0.70;;;20.40;94.40;;;;;;5091094;28;20450;-77
2021/05/25 12:33:56;;;;;;;2.50;0.80;;;20.50;95.20;;;;;;5089262;28;20525;-77
2021/05/25 12:36:24;;;;;;;0.90;0.70;;;20.60;94.50;;;;;;5089710;28;20446;-77
2021/05/25 12:39:00;;;;;;;1.57;0.83;;;20.50;94.60;;;;;;5089561;28;20470;-78
2021/05/25 12:41:26;;;;;;;1.00;0.90;;;20.40;94.70;;;;;;5092004;28;20492;-77
2021/05/25 12:44:09;;;;;;;1.63;0.80;;;20.30;93.00;;;;;;5091844;28;20538;-77
2021/05/25 12:46:49;;;;;;;0.80;0.70;;;19.90;92.60;;;;;;5091958;28;20442;-77
2021/05/25 12:49:30;;;;;;;3.20;1.10;;;19.70;92.50;;;;;;5091955;28;20474;-78
2021/05/25 12:52:24;;;;;;;1.30;0.70;;;19.40;92.60;;;;;;5092245;28;20523;-77
2021/05/25 12:54:51;;;;;;;1.53;0.60;;;19.30;93.70;;;;;;5076647;28;20482;-77
2021/05/25 12:57:17;;;;;;;2.53;0.83;;;19.10;93.10;;;;;;5091867;28;20470;-77